Time;durP1;ratioP1;P1;durP2;ratioP2;P2;SDS_P1;SDS_P2;PMS_P1;PMS_P2;Temp;Humidity;BMP_temperature;BMP_pressure;BME280_temperature;BME280_humidity;BME280_pressure;Samples;Min_cycle;Max_cycle;Signal;HPM_P1;HPM_P2
2021/08/28 00:02:07;;;;;;;3.45;2.50;;;13.80;76.40;;;13.41;62.16;94717.06;5059491;28;20198;-80
2021/08/28 00:04:35;;;;;;;4.35;2.38;;;13.80;76.50;;;13.46;62.33;94719.06;5059821;28;20234;-80
2021/08/28 00:07:02;;;;;;;2.30;2.10;;;13.80;76.40;;;13.47;62.26;94714.59;5088395;28;20278;-79
2021/08/28 00:09:30;;;;;;;2.85;2.45;;;13.80;76.50;;;13.50;61.77;94716.78;5056446;28;20233;-80
2021/08/28 00:11:57;;;;;;;2.72;2.53;;;13.80;76.50;;;13.52;62.18;94722.66;5057810;28;20223;-80
2021/08/28 00:14:24;;;;;;;2.92;2.55;;;13.90;76.70;;;13.52;61.85;94712.91;5036665;28;20282;-80
2021/08/28 00:16:51;;;;;;;3.00;2.70;;;13.80;76.60;;;13.54;62.32;94716.16;5045472;28;20234;-80
2021/08/28 00:19:18;;;;;;;4.32;2.45;;;13.90;76.80;;;13.56;62.29;94719.41;5036329;28;20227;-80
2021/08/28 00:21:45;;;;;;;2.40;2.20;;;13.90;76.90;;;13.62;62.22;94712.44;5036167;28;20223;-81
2021/08/28 00:24:13;;;;;;;3.92;2.50;;;13.90;76.80;;;13.65;62.33;94709.38;5036671;28;20199;-81
2021/08/28 00:26:40;;;;;;;2.60;2.40;;;14.00;76.90;;;13.68;62.62;94711.56;5039313;28;20226;-81
2021/08/28 00:29:07;;;;;;;2.83;2.53;;;14.00;77.00;;;13.66;62.50;94699.63;5036324;28;20204;-81
2021/08/28 00:31:34;;;;;;;2.60;2.40;;;14.00;76.90;;;13.71;62.34;94707.72;5035855;28;20219;-81
2021/08/28 00:34:02;;;;;;;3.50;2.40;;;14.00;76.80;;;13.70;62.17;94701.63;5036262;28;20208;-80
2021/08/28 00:36:29;;;;;;;2.50;2.30;;;14.00;76.60;;;13.66;61.98;94704.91;5068533;28;20223;-81
2021/08/28 00:38:56;;;;;;;2.50;2.28;;;14.00;76.60;;;13.63;62.07;94698.25;5036090;28;20322;-80
2021/08/28 00:41:23;;;;;;;2.72;2.53;;;14.00;76.60;;;13.63;61.92;94703.50;5035871;28;20211;-81
2021/08/28 00:43:51;;;;;;;2.83;2.50;;;14.00;76.70;;;13.64;62.48;94701.69;5052577;28;20606;-80
2021/08/28 00:46:18;;;;;;;2.45;2.25;;;14.00;76.80;;;13.64;62.33;94699.84;5062142;28;20596;-80
2021/08/28 00:48:48;;;;;;;2.78;2.53;;;14.00;76.80;;;13.64;62.22;94702.50;5035632;28;20218;-79
2021/08/28 00:51:15;;;;;;;3.97;2.47;;;14.00;76.90;;;13.65;62.25;94705.94;5035621;28;20232;-80
2021/08/28 00:53:42;;;;;;;2.95;2.63;;;14.00;76.80;;;13.64;62.32;94699.84;5021831;28;20294;-80
2021/08/28 00:56:10;;;;;;;2.83;2.53;;;14.00;76.80;;;13.63;62.48;94698.25;5052458;28;20223;-79
2021/08/28 00:58:37;;;;;;;2.42;2.22;;;14.00;76.80;;;13.64;62.29;94699.06;5049402;28;20226;-80
2021/08/28 01:01:20;;;;;;;3.35;2.40;;;14.00;76.90;;;13.63;62.41;94703.50;5076056;28;20221;-81
2021/08/28 01:03:54;;;;;;;2.58;2.38;;;14.10;77.40;;;13.66;62.32;94694.38;5055530;28;20568;-80
2021/08/28 01:06:40;;;;;;;2.70;2.40;;;14.10;77.50;;;13.67;62.48;94685.44;5067851;28;20224;-80
2021/08/28 01:09:33;;;;;;;2.70;2.50;;;14.00;77.40;;;13.73;62.57;94695.13;5037518;28;20218;-80
2021/08/28 01:12:26;;;;;;;2.83;2.33;;;14.10;77.50;;;13.77;62.45;94693.69;5038421;28;20202;-80
2021/08/28 01:15:12;;;;;;;2.40;2.20;;;14.10;77.50;;;13.81;62.52;94686.13;5054367;28;20222;-79
2021/08/28 01:17:45;;;;;;;2.60;2.40;;;14.10;77.50;;;13.83;62.59;94690.16;5046587;28;20554;-80
2021/08/28 01:20:39;;;;;;;3.35;2.45;;;14.20;77.60;;;13.85;62.18;94693.38;5051594;28;20223;-79
2021/08/28 01:23:37;;;;;;;2.88;2.40;;;14.10;77.50;;;13.86;62.25;94688.94;5043285;28;20239;-80
2021/08/28 01:26:18;;;;;;;3.22;2.42;;;14.20;77.30;;;13.89;62.31;94697.22;5060741;28;20622;-80
2021/08/28 01:28:53;;;;;;;2.70;2.40;;;14.20;77.40;;;13.91;62.60;94691.72;5035314;28;20227;-79
2021/08/28 01:31:22;;;;;;;3.17;2.38;;;14.20;77.50;;;13.89;62.32;94680.56;5034911;28;20500;-80
2021/08/28 01:33:51;;;;;;;2.40;2.20;;;14.20;77.30;;;13.93;62.31;94692.31;5027435;28;20194;-80
2021/08/28 01:36:20;;;;;;;3.03;2.75;;;14.20;77.10;;;13.91;62.39;94684.63;5035234;28;20219;-80
2021/08/28 01:39:13;;;;;;;3.92;3.03;;;14.30;77.10;;;13.84;62.34;94688.31;5045803;28;20230;-80
2021/08/28 01:41:51;;;;;;;2.97;2.70;;;14.30;76.90;;;13.80;62.37;94681.88;5035135;28;20274;-80
2021/08/28 01:44:18;;;;;;;2.47;2.10;;;14.30;77.10;;;13.75;62.47;94685.16;5035494;28;20198;-80
2021/08/28 01:46:48;;;;;;;3.45;2.50;;;14.20;76.70;;;13.70;62.35;94677.13;5054141;28;20305;-79
2021/08/28 01:49:16;;;;;;;2.92;2.13;;;14.20;76.80;;;13.61;62.49;94680.03;5071161;28;20206;-79
2021/08/28 01:51:45;;;;;;;3.95;2.67;;;14.20;76.70;;;13.61;62.54;94679.22;5062940;28;20210;-80
2021/08/28 01:54:26;;;;;;;2.70;2.50;;;14.10;76.80;;;13.58;62.30;94680.44;5057378;28;20616;-80
2021/08/28 01:56:54;;;;;;;2.95;2.53;;;14.10;76.80;;;13.56;62.51;94677.22;5054554;28;20237;-80
2021/08/28 01:59:22;;;;;;;2.70;2.50;;;14.00;76.80;;;13.55;62.49;94678.25;5054891;28;20245;-80
2021/08/28 02:02:04;;;;;;;2.55;2.35;;;14.00;76.90;;;13.53;62.64;94676.84;5044100;28;20203;-80
2021/08/28 02:04:44;;;;;;;2.70;2.50;;;14.10;77.10;;;13.54;62.74;94681.91;5038376;28;20207;-79
2021/08/28 02:07:21;;;;;;;4.22;2.50;;;14.00;77.40;;;13.59;62.89;94679.41;5034689;28;20227;-80
2021/08/28 02:10:18;;;;;;;2.90;2.60;;;13.90;77.40;;;13.61;62.58;94672.13;5053364;28;20257;-80
2021/08/28 02:12:56;;;;;;;3.13;2.75;;;14.00;77.50;;;13.66;62.93;94671.47;5019293;28;20195;-80
2021/08/28 02:15:42;;;;;;;2.60;2.20;;;14.00;77.40;;;13.68;62.73;94668.59;5018283;28;20229;-80
2021/08/28 02:18:16;;;;;;;2.97;2.40;;;14.00;77.40;;;13.74;62.98;94676.47;5036901;28;20230;-80
2021/08/28 02:21:01;;;;;;;2.70;2.50;;;14.10;77.50;;;13.74;62.60;94673.00;5090349;28;20225;-80
2021/08/28 02:24:04;;;;;;;2.70;2.50;;;14.10;77.50;;;13.73;62.36;94663.47;5059305;28;20244;-80
2021/08/28 02:26:41;;;;;;;2.85;2.45;;;14.10;77.50;;;13.72;62.67;94673.22;5075055;28;20222;-79
2021/08/28 02:29:17;;;;;;;3.13;2.63;;;14.10;77.50;;;13.64;63.15;94668.22;5054219;28;20264;-79
2021/08/28 02:31:49;;;;;;;2.40;2.20;;;14.10;77.50;;;13.62;62.60;94670.28;5038853;28;20278;-79
2021/08/28 02:34:19;;;;;;;3.25;2.60;;;14.00;77.40;;;13.61;62.64;94673.94;5038666;28;20191;-80
2021/08/28 02:36:54;;;;;;;2.90;2.70;;;14.00;77.40;;;13.59;62.76;94679.41;5043532;28;20742;-80
2021/08/28 02:39:22;;;;;;;2.83;2.45;;;14.00;77.40;;;13.56;62.80;94671.97;5058427;28;20226;-80
2021/08/28 02:41:51;;;;;;;3.30;3.00;;;13.90;77.40;;;13.53;62.89;94674.22;5056805;28;20252;-80
2021/08/28 02:44:21;;;;;;;2.88;2.60;;;14.00;77.40;;;13.48;62.91;94671.44;5056951;28;20195;-80
2021/08/28 02:46:49;;;;;;;2.90;2.70;;;13.90;77.40;;;13.47;62.86;94677.72;5055954;28;20250;-80
2021/08/28 02:49:18;;;;;;;3.08;2.78;;;14.00;77.50;;;13.43;62.83;94672.06;5055466;28;20210;-80
2021/08/28 02:51:49;;;;;;;3.90;3.00;;;13.90;77.40;;;13.42;63.36;94679.16;5056176;28;20218;-79
2021/08/28 02:54:23;;;;;;;3.15;2.80;;;13.90;77.40;;;13.43;63.06;94672.88;5073015;28;20252;-81
2021/08/28 02:56:52;;;;;;;2.95;2.75;;;13.90;77.40;;;13.42;63.34;94673.09;5073006;28;20218;-80
2021/08/28 02:59:23;;;;;;;3.22;2.80;;;13.90;77.40;;;13.43;63.11;94669.44;5072281;28;20237;-80
2021/08/28 03:01:51;;;;;;;4.05;2.75;;;13.80;77.30;;;13.44;63.00;94681.59;5052724;28;20224;-80
2021/08/28 03:04:22;;;;;;;3.05;2.75;;;13.80;77.30;;;13.47;63.00;94677.72;5039875;28;20207;-79
2021/08/28 03:06:51;;;;;;;3.83;2.67;;;13.90;77.40;;;13.48;62.86;94674.88;5054868;28;20210;-79
2021/08/28 03:09:19;;;;;;;3.33;2.85;;;13.80;77.30;;;13.44;62.88;94671.84;5040639;28;20197;-79
2021/08/28 03:11:48;;;;;;;2.65;2.45;;;13.80;77.30;;;13.51;63.11;94681.53;5090762;28;20213;-79
2021/08/28 03:14:17;;;;;;;3.13;2.55;;;13.80;77.40;;;13.56;63.22;94681.69;5057366;28;20215;-79
2021/08/28 03:16:51;;;;;;;3.45;2.58;;;13.80;77.50;;;13.59;63.17;94684.69;5057118;28;20211;-79
2021/08/28 03:19:33;;;;;;;3.28;2.80;;;13.90;77.90;;;13.61;63.07;94679.22;5055267;28;20302;-78
2021/08/28 03:22:03;;;;;;;2.67;2.47;;;13.90;77.60;;;13.61;63.21;94669.47;5056877;28;20236;-79
2021/08/28 03:24:33;;;;;;;3.20;2.85;;;13.90;77.60;;;13.68;63.34;94679.94;5055152;28;20195;-79
2021/08/28 03:27:14;;;;;;;3.60;2.55;;;13.90;77.70;;;13.70;63.13;94674.47;5057561;28;20201;-79
2021/08/28 03:29:44;;;;;;;3.45;3.05;;;14.00;78.30;;;13.73;63.42;94666.13;5056700;28;20191;-79
2021/08/28 03:32:14;;;;;;;3.38;2.92;;;14.00;77.50;;;13.75;63.24;94664.88;5056981;28;20256;-79
2021/08/28 03:34:42;;;;;;;3.70;3.40;;;14.10;77.50;;;13.79;63.32;94667.09;5039908;28;20569;-79
2021/08/28 03:37:12;;;;;;;3.55;3.13;;;14.00;77.60;;;13.80;63.31;94663.44;5071265;28;20191;-79
2021/08/28 03:39:40;;;;;;;3.20;2.90;;;14.10;77.80;;;13.81;63.27;94665.06;5070359;28;20276;-79
2021/08/28 03:42:08;;;;;;;3.80;3.50;;;14.10;77.80;;;13.86;63.25;94670.47;5056404;28;20300;-79
2021/08/28 03:44:40;;;;;;;3.42;3.13;;;14.20;77.90;;;13.90;63.33;94667.19;5056164;28;20285;-79
2021/08/28 03:47:15;;;;;;;4.60;3.60;;;14.20;78.10;;;13.90;63.35;94666.38;5055889;28;20198;-79
2021/08/28 03:49:42;;;;;;;3.85;3.55;;;14.20;78.10;;;13.95;63.20;94670.97;5055305;28;20230;-80
2021/08/28 03:52:10;;;;;;;7.00;4.15;;;14.20;77.60;;;13.97;63.45;94675.00;5055757;28;20211;-79
2021/08/28 03:54:39;;;;;;;4.88;3.58;;;14.20;77.60;;;13.99;63.49;94661.59;5055722;28;20585;-79
2021/08/28 03:57:06;;;;;;;3.85;3.50;;;14.30;77.90;;;14.01;63.19;94667.47;5055674;28;20195;-79
2021/08/28 03:59:34;;;;;;;3.88;3.58;;;14.40;77.90;;;14.02;63.41;94666.44;5051188;28;20211;-81
2021/08/28 04:02:05;;;;;;;4.43;4.00;;;14.30;77.70;;;14.03;63.43;94663.59;5051344;28;20235;-80
2021/08/28 04:04:43;;;;;;;4.20;3.83;;;14.30;77.70;;;14.02;63.58;94669.88;5021689;28;20669;-80
2021/08/28 04:07:12;;;;;;;3.75;3.45;;;14.40;77.70;;;14.02;63.67;94663.81;5018807;28;20567;-80
2021/08/28 04:09:39;;;;;;;4.60;3.58;;;14.30;77.60;;;14.04;63.23;94670.47;5044137;28;20689;-81
2021/08/28 04:12:07;;;;;;;3.70;3.40;;;14.50;77.90;;;14.08;63.57;94673.47;5034955;28;20286;-81
2021/08/28 04:14:41;;;;;;;5.15;4.30;;;14.40;77.70;;;14.06;63.75;94667.63;5051868;28;20210;-80
2021/08/28 04:17:08;;;;;;;5.97;4.50;;;14.40;77.70;;;14.09;63.90;94675.09;5048639;28;20200;-81
2021/08/28 04:19:36;;;;;;;4.68;4.22;;;14.40;77.70;;;14.07;63.60;94666.59;5052685;28;20281;-82
2021/08/28 04:22:12;;;;;;;4.80;4.35;;;14.40;77.70;;;14.08;63.95;94678.75;5038829;28;20571;-82
2021/08/28 04:25:03;;;;;;;4.68;4.10;;;14.40;77.80;;;14.07;63.80;94671.88;5045801;28;20306;-81
2021/08/28 04:27:48;;;;;;;5.13;4.63;;;14.40;78.00;;;14.05;64.06;94674.72;5051980;28;20202;-80
2021/08/28 04:30:24;;;;;;;6.22;5.13;;;14.40;77.90;;;14.06;64.00;94670.25;5054832;28;20310;-79
2021/08/28 04:32:51;;;;;;;4.53;4.13;;;14.40;78.10;;;14.09;63.76;94670.63;5053168;28;20203;-80
2021/08/28 04:35:19;;;;;;;5.45;4.95;;;14.40;78.10;;;14.12;64.27;94679.91;5036723;28;20215;-80
2021/08/28 04:37:47;;;;;;;4.45;4.05;;;14.40;78.20;;;14.12;63.99;94672.00;5052838;28;20207;-80
2021/08/28 04:40:14;;;;;;;5.85;4.30;;;14.50;78.20;;;14.17;63.88;94682.72;5035880;28;20230;-79
2021/08/28 04:42:43;;;;;;;4.85;4.45;;;14.40;78.20;;;14.18;64.18;94671.13;5036096;28;20223;-80
2021/08/28 04:45:13;;;;;;;5.72;4.88;;;14.50;78.30;;;14.14;63.99;94666.53;5052627;28;20223;-81
2021/08/28 04:48:00;;;;;;;4.65;4.22;;;14.50;78.30;;;14.19;63.84;94680.66;5053238;28;20206;-81
2021/08/28 04:50:28;;;;;;;5.35;4.85;;;14.50;78.30;;;14.24;64.15;94696.66;5053102;28;20261;-80
2021/08/28 04:52:56;;;;;;;5.60;5.10;;;14.50;78.40;;;14.23;64.29;94689.75;5052303;28;20199;-81
2021/08/28 04:55:28;;;;;;;5.20;4.70;;;14.50;78.50;;;14.23;64.20;94681.84;5036472;28;20664;-81
2021/08/28 04:57:56;;;;;;;4.90;4.22;;;14.60;78.50;;;14.24;64.43;94691.38;5052476;28;20215;-80
2021/08/28 05:00:23;;;;;;;5.20;4.78;;;14.50;78.40;;;14.25;64.56;94684.25;5052420;28;20407;-80
2021/08/28 05:03:10;;;;;;;4.45;4.05;;;14.60;78.50;;;14.24;64.01;94690.56;5052649;28;20499;-81
2021/08/28 05:05:37;;;;;;;4.60;3.97;;;14.60;78.40;;;14.24;64.27;94693.19;5035569;28;20273;-81
2021/08/28 05:08:04;;;;;;;5.05;4.50;;;14.60;78.40;;;14.24;64.34;94693.19;5050765;28;20199;-81
2021/08/28 05:10:31;;;;;;;4.47;3.78;;;14.60;78.50;;;14.22;63.98;94687.31;5051460;28;20226;-81
2021/08/28 05:12:59;;;;;;;4.85;4.30;;;14.60;78.50;;;14.24;64.25;94687.91;5039717;28;20195;-81
2021/08/28 05:15:34;;;;;;;5.25;4.75;;;14.60;78.60;;;14.22;64.67;94700.50;5058435;28;20257;-81
2021/08/28 05:18:04;;;;;;;5.10;4.60;;;14.60;78.60;;;14.20;64.22;94697.31;5055535;28;20198;-82
2021/08/28 05:20:33;;;;;;;5.22;4.72;;;14.60;78.50;;;14.17;64.54;94695.09;5066878;28;20238;-81
2021/08/28 05:23:18;;;;;;;6.22;4.38;;;14.50;78.30;;;14.11;64.19;94693.34;5038465;28;20296;-81
2021/08/28 05:25:57;;;;;;;3.97;3.67;;;14.50;78.20;;;14.03;64.40;94691.81;5052270;28;20227;-81
2021/08/28 05:28:26;;;;;;;4.53;4.13;;;14.50;78.20;;;13.99;64.57;94691.44;5052530;28;20306;-81
2021/08/28 05:30:55;;;;;;;4.35;3.95;;;14.50;78.30;;;13.96;64.62;94688.41;5052130;28;20210;-80
2021/08/28 05:33:24;;;;;;;4.20;3.80;;;14.50;78.40;;;13.97;64.33;94693.47;5050925;28;20276;-81
2021/08/28 05:35:53;;;;;;;5.07;3.90;;;14.40;78.40;;;13.96;64.65;94694.50;5018957;28;20233;-81
2021/08/28 05:38:43;;;;;;;4.22;3.50;;;14.40;78.50;;;13.95;64.57;94698.16;5057046;28;20203;-82
2021/08/28 05:41:11;;;;;;;4.78;3.50;;;14.40;78.50;;;13.89;64.83;94693.75;5068878;28;20253;-80
2021/08/28 05:43:38;;;;;;;3.88;3.47;;;14.40;78.60;;;13.95;64.54;94703.41;5051359;28;20197;-80
2021/08/28 05:46:25;;;;;;;4.20;3.78;;;14.30;78.60;;;13.92;64.53;94701.22;5052410;28;20305;-80
2021/08/28 05:49:02;;;;;;;3.67;3.00;;;14.30;78.50;;;13.90;64.46;94701.47;5036749;28;20199;-81
2021/08/28 05:51:45;;;;;;;3.50;2.97;;;14.30;78.50;;;13.86;64.53;94694.19;5073126;28;20226;-81
2021/08/28 05:54:17;;;;;;;3.20;2.90;;;14.30;78.50;;;13.89;64.65;94704.28;5037021;28;20202;-81
2021/08/28 05:56:46;;;;;;;2.88;2.58;;;14.30;78.70;;;13.87;64.62;94688.69;5086994;28;20226;-81
2021/08/28 05:59:13;;;;;;;2.53;2.28;;;14.30;78.90;;;13.96;64.70;94699.75;5049853;28;20269;-81
2021/08/28 06:01:40;;;;;;;2.38;2.15;;;14.30;79.00;;;13.97;64.53;94698.75;5054073;28;20807;-80
2021/08/28 06:04:08;;;;;;;5.40;2.63;;;14.30;79.10;;;14.05;64.80;94706.38;5038275;28;20218;-80
2021/08/28 06:07:08;;;;;;;2.80;2.40;;;14.30;79.30;;;14.11;64.54;94702.06;5142801;27;20565;-79
2021/08/28 06:09:48;;;;;;;2.65;2.45;;;14.40;79.40;;;14.17;65.13;94708.28;5073692;28;20193;-80
2021/08/28 06:12:36;;;;;;;2.65;2.45;;;14.40;79.40;;;14.24;65.13;94712.47;5085092;28;20202;-81
2021/08/28 06:15:22;;;;;;;3.00;2.80;;;14.50;79.60;;;14.33;65.01;94710.34;5073883;28;20752;-79
2021/08/28 06:18:07;;;;;;;3.05;2.75;;;14.50;79.60;;;14.43;65.13;94701.91;5088003;28;20206;-80
2021/08/28 06:20:34;;;;;;;9.63;6.63;;;14.50;79.70;;;14.52;64.85;94708.50;5071767;28;20271;-80
2021/08/28 06:23:03;;;;;;;12.55;8.48;;;14.60;79.80;;;14.62;65.15;94700.06;5055780;28;20194;-80
2021/08/28 06:25:50;;;;;;;9.90;7.25;;;14.70;79.80;;;14.70;64.78;94712.19;5073579;28;20229;-79
2021/08/28 06:28:18;;;;;;;5.90;4.82;;;14.70;79.80;;;14.71;65.26;94705.88;5080454;28;20292;-80
2021/08/28 06:30:45;;;;;;;3.90;3.05;;;14.90;80.00;;;14.76;64.90;94705.19;5087962;28;20210;-80
2021/08/28 06:33:13;;;;;;;3.20;2.90;;;15.00;79.90;;;14.83;64.85;94709.38;5070767;28;20731;-80
2021/08/28 06:35:40;;;;;;;6.57;4.88;;;14.90;79.90;;;14.88;65.03;94716.63;5054983;28;20210;-80
2021/08/28 06:38:26;;;;;;;5.75;3.28;;;15.10;79.90;;;14.90;65.45;94717.19;5073881;28;20228;-80
2021/08/28 06:41:24;;;;;;;3.00;2.72;;;15.10;79.60;;;14.93;64.54;94715.94;5066864;28;20246;-80
2021/08/28 06:44:10;;;;;;;2.70;2.50;;;15.10;79.60;;;14.98;65.00;94718.75;5088545;28;20186;-80
2021/08/28 06:46:56;;;;;;;3.58;3.08;;;15.20;79.60;;;15.11;65.07;94717.72;5075400;28;20221;-80
2021/08/28 06:49:42;;;;;;;4.05;2.65;;;15.20;79.80;;;15.20;65.07;94721.69;5067688;28;20714;-79
2021/08/28 06:52:28;;;;;;;2.85;2.55;;;15.30;79.80;;;15.28;64.62;94715.25;5068154;28;20193;-80
2021/08/28 06:55:21;;;;;;;26.45;5.22;;;15.40;79.70;;;15.32;64.52;94724.38;5051662;28;20580;-80
2021/08/28 06:58:07;;;;;;;27.80;5.28;;;15.50;79.50;;;15.32;63.98;94714.59;5068198;28;20190;-81
2021/08/28 07:00:55;;;;;;;1957.45;238.38;;;15.50;79.30;;;15.36;63.50;94725.50;5070105;28;20222;-79
2021/08/28 07:03:41;;;;;;;157.77;22.25;;;15.50;79.10;;;15.37;64.28;94720.00;5087782;28;20201;-80
2021/08/28 07:06:15;;;;;;;11.40;4.35;;;15.60;79.10;;;15.42;64.27;94734.38;5070853;28;20229;-81
2021/08/28 07:08:43;;;;;;;9.38;3.55;;;15.60;78.90;;;15.44;64.04;94729.66;5064891;28;20283;-81
2021/08/28 07:11:10;;;;;;;7.10;2.55;;;15.60;78.70;;;15.42;63.82;94732.53;5072156;28;20498;-80
2021/08/28 07:13:37;;;;;;;5.32;2.63;;;15.70;79.40;;;15.44;63.82;94727.00;5087668;28;20222;-80
2021/08/28 07:16:05;;;;;;;495.10;48.75;;;15.60;78.60;;;15.37;63.83;94721.84;5087576;28;20316;-80
2021/08/28 07:18:32;;;;;;;52.88;9.77;;;15.60;78.60;;;15.40;63.42;94725.88;5057421;28;20191;-81
2021/08/28 07:20:59;;;;;;;7.43;2.92;;;15.70;78.60;;;15.36;63.78;94730.78;5048208;28;20700;-81
2021/08/28 07:23:27;;;;;;;313.38;27.38;;;15.60;78.60;;;15.35;63.57;94729.19;5041271;28;20279;-81
2021/08/28 07:25:58;;;;;;;18.08;3.88;;;15.60;78.60;;;15.34;63.85;94712.53;5060404;28;20345;-80
2021/08/28 07:28:27;;;;;;;84.43;9.10;;;15.60;78.60;;;15.47;63.68;94730.00;5091683;28;20198;-80
2021/08/28 07:31:05;;;;;;;51.53;6.05;;;15.60;78.70;;;15.56;64.20;94724.41;5074536;28;20218;-80
2021/08/28 07:33:38;;;;;;;6.50;2.97;;;15.70;79.10;;;15.72;64.16;94730.84;5069493;28;20211;-79
2021/08/28 07:36:06;;;;;;;2.75;1.90;;;15.70;79.30;;;15.86;63.88;94724.34;5053991;28;20259;-80
2021/08/28 07:38:33;;;;;;;17.50;4.53;;;15.80;79.50;;;16.03;63.65;94736.88;5047026;28;20198;-79
2021/08/28 07:41:01;;;;;;;1.80;1.70;;;15.90;79.60;;;16.19;63.53;94730.91;5057717;28;20234;-79
2021/08/28 07:43:30;;;;;;;2.40;1.80;;;16.10;79.70;;;16.38;62.63;94744.00;5083466;28;20195;-80
2021/08/28 07:46:01;;;;;;;11.25;3.50;;;16.20;79.40;;;16.49;62.70;94730.75;5059542;28;20317;-80
2021/08/28 07:48:32;;;;;;;1.63;1.52;;;16.30;79.10;;;16.56;61.63;94727.16;5054925;28;20252;-80
2021/08/28 07:51:00;;;;;;;19.30;3.60;;;16.50;79.00;;;16.68;62.52;94730.59;5035071;28;20215;-80
2021/08/28 07:53:29;;;;;;;708.85;76.65;;;16.50;79.20;;;16.79;62.29;94726.31;5053633;28;20266;-79
2021/08/28 07:56:00;;;;;;;18.88;5.45;;;16.60;79.30;;;16.93;62.23;94722.38;5037494;28;20251;-80
2021/08/28 07:58:28;;;;;;;33.97;8.70;;;16.80;79.40;;;17.12;62.84;94724.81;5056781;28;20533;-80
2021/08/28 08:00:55;;;;;;;13.52;4.30;;;16.90;79.50;;;17.27;62.53;94722.44;5056651;28;20238;-80
2021/08/28 08:03:23;;;;;;;2.15;1.70;;;17.00;79.30;;;17.35;61.29;94718.59;5036166;28;20265;-80
2021/08/28 08:06:09;;;;;;;1.80;1.70;;;17.10;78.30;;;17.38;60.63;94731.38;5039343;28;20234;-79
2021/08/28 08:08:55;;;;;;;2.33;1.65;;;17.20;77.80;;;17.38;60.61;94720.78;5059222;28;20210;-80
2021/08/28 08:11:57;;;;;;;1.48;1.38;;;17.40;77.50;;;17.38;60.65;94726.09;5039650;28;20242;-82
2021/08/28 08:14:24;;;;;;;1195.68;125.57;;;17.40;77.40;;;17.42;60.94;94729.06;5063310;28;20264;-80
2021/08/28 08:16:55;;;;;;;30.25;6.72;;;17.40;77.50;;;17.49;60.75;94732.38;5073032;28;20218;-81
2021/08/28 08:19:41;;;;;;;16.20;3.30;;;17.50;77.20;;;17.55;60.24;94730.59;5072511;28;20288;-80
2021/08/28 08:22:37;;;;;;;58.05;7.50;;;17.60;77.20;;;17.63;60.68;94730.19;5072895;28;20248;-80
2021/08/28 08:25:33;;;;;;;23.85;4.35;;;17.60;77.00;;;17.74;60.44;94728.53;5067962;28;20219;-81
2021/08/28 08:28:19;;;;;;;10.27;2.20;;;17.70;77.00;;;17.80;60.78;94718.78;5058690;28;20289;-81
2021/08/28 08:31:06;;;;;;;1.67;1.55;;;17.70;77.00;;;17.91;60.55;94717.91;5072434;28;20222;-80
2021/08/28 08:33:33;;;;;;;1.48;1.30;;;17.80;77.10;;;18.01;60.69;94717.28;5072671;28;20293;-80
2021/08/28 08:36:05;;;;;;;1.60;1.50;;;17.90;77.10;;;18.07;60.06;94713.66;5040277;28;20222;-79
2021/08/28 08:38:33;;;;;;;1.60;1.50;;;17.90;77.10;;;18.22;59.38;94713.06;5052423;28;20203;-80
2021/08/28 08:41:01;;;;;;;1.35;1.25;;;18.00;76.90;;;18.36;60.34;94709.00;5052287;28;20234;-80
2021/08/28 08:43:29;;;;;;;1.58;1.48;;;18.10;77.50;;;18.55;60.13;94711.34;5036371;28;20201;-79
2021/08/28 08:45:57;;;;;;;3.38;1.48;;;18.10;77.80;;;18.78;59.76;94705.00;5071448;28;20222;-81
2021/08/28 08:48:27;;;;;;;1.25;1.25;;;18.20;77.10;;;18.88;58.58;94709.63;5055914;28;20219;-80
2021/08/28 08:50:54;;;;;;;1.33;1.23;;;18.40;76.50;;;18.99;58.60;94707.91;5055584;28;20272;-79
2021/08/28 08:53:28;;;;;;;1.30;1.20;;;18.50;76.90;;;19.08;58.97;94702.94;5055551;28;20628;-80
2021/08/28 08:56:08;;;;;;;1.70;1.60;;;18.60;76.10;;;19.27;59.35;94704.19;5057282;28;20230;-80
2021/08/28 08:58:38;;;;;;;1.33;1.23;;;18.80;77.10;;;19.46;58.86;94709.16;5055852;28;20670;-81
2021/08/28 09:01:07;;;;;;;1.50;1.40;;;18.80;76.30;;;19.59;58.60;94706.09;5071683;28;20218;-80
2021/08/28 09:03:35;;;;;;;1.80;1.40;;;19.00;76.80;;;19.77;58.63;94709.41;5054853;28;20199;-80
2021/08/28 09:06:06;;;;;;;1.20;1.20;;;19.20;76.70;;;19.93;58.54;94715.66;5055804;28;20227;-81
2021/08/28 09:08:38;;;;;;;1.17;1.17;;;19.40;76.40;;;20.05;58.21;94710.16;5039894;28;20656;-81
2021/08/28 09:11:24;;;;;;;1.35;1.20;;;19.60;76.00;;;20.14;57.51;94719.25;5072955;28;20222;-80
2021/08/28 09:14:18;;;;;;;1.20;1.20;;;19.70;75.10;;;20.13;57.23;94715.03;5054831;28;20218;-80
2021/08/28 09:16:48;;;;;;;1.00;1.00;;;19.80;75.00;;;20.10;57.77;94715.53;5054719;28;20604;-79
2021/08/28 09:19:38;;;;;;;1.30;1.10;;;19.90;74.70;;;20.09;57.45;94708.59;5055346;28;20330;-80
2021/08/28 09:22:26;;;;;;;2.15;1.38;;;19.90;75.40;;;20.04;56.67;94717.34;5038944;28;20199;-79
2021/08/28 09:25:03;;;;;;;1.27;1.20;;;20.00;74.10;;;20.04;57.13;94722.66;5055901;28;20268;-79
2021/08/28 09:27:47;;;;;;;1.40;1.30;;;19.90;74.00;;;20.08;56.94;94718.44;5055627;28;20218;-79
2021/08/28 09:30:17;;;;;;;4.97;1.77;;;20.00;73.90;;;20.15;57.48;94726.19;5055874;28;20206;-79
2021/08/28 09:33:02;;;;;;;1.95;1.27;;;20.00;74.30;;;20.20;56.24;94728.91;5054754;28;20191;-79
2021/08/28 09:35:48;;;;;;;1.65;1.10;;;20.00;73.50;;;20.14;56.55;94722.75;5053047;28;20249;-79
2021/08/28 09:38:22;;;;;;;0.90;0.90;;;20.00;73.30;;;20.03;54.62;94723.75;5035762;28;20200;-80
2021/08/28 09:40:58;;;;;;;1.40;1.30;;;20.10;72.30;;;19.95;55.72;94725.00;5065102;28;20242;-80
2021/08/28 09:43:27;;;;;;;1.33;1.23;;;20.10;72.50;;;19.87;54.79;94722.81;5056223;28;20202;-81
2021/08/28 09:45:55;;;;;;;1.63;1.00;;;20.00;72.00;;;19.82;55.74;94714.75;5055032;28;20222;-79
2021/08/28 09:48:29;;;;;;;1.20;1.20;;;20.00;72.60;;;19.86;55.83;94717.75;5055012;28;20256;-81
2021/08/28 09:50:59;;;;;;;1.33;1.23;;;19.90;72.30;;;19.89;55.58;94718.03;5069798;28;20721;-79
2021/08/28 09:53:42;;;;;;;1.92;1.38;;;19.90;72.60;;;19.94;55.80;94718.06;5042586;28;20213;-79
2021/08/28 09:56:09;;;;;;;1.00;1.00;;;19.90;73.00;;;19.99;55.37;94719.97;5054476;28;20218;-79
2021/08/28 09:58:40;;;;;;;1.10;1.10;;;20.00;72.70;;;19.97;54.71;94719.44;5055085;28;20198;-80
2021/08/28 10:01:07;;;;;;;1.05;1.05;;;19.90;71.80;;;19.92;54.40;94727.38;5054453;28;20232;-80
2021/08/28 10:03:36;;;;;;;1.15;1.10;;;19.90;71.90;;;19.84;54.85;94726.78;5070975;28;20187;-80
2021/08/28 10:06:04;;;;;;;1.10;1.10;;;19.90;71.90;;;19.82;55.53;94723.56;5037635;28;20219;-80
2021/08/28 10:08:32;;;;;;;2.88;1.38;;;19.90;72.40;;;19.89;55.38;94723.38;5054432;28;20205;-80
2021/08/28 10:11:01;;;;;;;0.90;0.90;;;19.80;73.40;;;19.96;55.72;94715.97;5054062;28;20222;-80
2021/08/28 10:13:33;;;;;;;3.90;1.30;;;19.80;72.30;;;20.09;55.51;94713.91;5071218;28;20709;-79
2021/08/28 10:16:03;;;;;;;1.00;1.00;;;19.90;72.80;;;20.17;55.60;94713.44;5054379;28;20708;-80
2021/08/28 10:18:33;;;;;;;1.20;1.13;;;19.90;72.70;;;20.32;54.95;94718.03;5054388;28;20653;-79
2021/08/28 10:21:03;;;;;;;1.20;1.10;;;20.00;72.50;;;20.43;54.97;94709.06;5070956;28;20296;-80
2021/08/28 10:23:37;;;;;;;1.20;1.10;;;20.10;72.60;;;20.52;53.52;94706.72;5054565;28;20197;-80
2021/08/28 10:26:10;;;;;;;1.10;1.10;;;20.20;71.80;;;20.50;54.27;94708.81;5053208;28;20214;-80
2021/08/28 10:28:40;;;;;;;1.15;1.08;;;20.30;71.40;;;20.46;53.91;94708.53;5054582;28;20197;-79
2021/08/28 10:31:10;;;;;;;1.10;1.10;;;20.30;70.90;;;20.45;54.23;94706.13;5070808;28;20207;-80
2021/08/28 10:33:39;;;;;;;1.13;1.13;;;20.30;71.40;;;20.44;53.47;94707.19;5054382;28;20673;-80
2021/08/28 10:36:07;;;;;;;2.15;0.90;;;20.40;70.90;;;20.42;53.25;94709.31;5070701;28;20214;-80
2021/08/28 10:38:37;;;;;;;1.00;1.00;;;20.30;70.90;;;20.38;53.65;94705.56;5054742;28;20213;-80
2021/08/28 10:41:06;;;;;;;1.00;1.00;;;20.30;70.70;;;20.35;53.68;94701.56;5037352;28;20220;-79
2021/08/28 10:43:34;;;;;;;1.13;1.13;;;20.30;70.50;;;20.29;52.49;94708.72;5054322;28;20207;-80
2021/08/28 10:46:16;;;;;;;2.15;1.20;;;20.30;70.00;;;20.21;52.89;94701.19;5053776;28;20723;-78